Time;durP1;ratioP1;P1;durP2;ratioP2;P2;SDS_P1;SDS_P2;PMS_P1;PMS_P2;Temp;Humidity;BMP_temperature;BMP_pressure;BME280_temperature;BME280_humidity;BME280_pressure;Samples;Min_cycle;Max_cycle;Signal;HPM_P1;HPM_P2
2022/10/11 00:01:33;;;;;;;1.37;1.20;;;16.80;99.90;;;;;;4967794;28;20298;-63
2022/10/11 00:04:00;;;;;;;1.07;1.07;;;16.80;99.90;;;;;;4973654;28;20322;-63
2022/10/11 00:06:27;;;;;;;1.37;1.27;;;16.90;99.90;;;;;;4962318;28;20220;-64
2022/10/11 00:08:53;;;;;;;1.30;1.20;;;17.00;99.90;;;;;;4964335;28;20677;-64
2022/10/11 00:11:20;;;;;;;2.60;1.30;;;17.00;99.90;;;;;;4959552;28;20205;-64
2022/10/11 00:13:48;;;;;;;1.33;1.23;;;16.80;99.90;;;;;;4960572;28;20320;-64
2022/10/11 00:16:15;;;;;;;1.30;1.20;;;16.90;99.90;;;;;;4962999;28;20202;-64
2022/10/11 00:18:42;;;;;;;1.17;1.17;;;16.90;99.90;;;;;;4964917;28;20219;-64
2022/10/11 00:21:12;;;;;;;1.90;1.17;;;16.80;99.90;;;;;;4957788;28;20293;-64
2022/10/11 00:23:39;;;;;;;1.10;1.00;;;16.80;99.90;;;;;;4970805;28;20205;-64
2022/10/11 00:26:09;;;;;;;1.20;1.20;;;16.90;99.90;;;;;;4959399;28;20211;-64
2022/10/11 00:28:36;;;;;;;1.30;1.20;;;16.90;99.90;;;;;;4966683;28;20212;-62
2022/10/11 00:31:07;;;;;;;1.30;1.20;;;16.90;99.90;;;;;;4975998;28;20614;-64
2022/10/11 00:33:33;;;;;;;1.10;1.10;;;16.90;99.90;;;;;;4978084;28;20198;-64
2022/10/11 00:36:00;;;;;;;1.50;1.40;;;16.90;99.90;;;;;;4985383;28;20209;-64
2022/10/11 00:38:27;;;;;;;1.50;1.40;;;16.80;99.90;;;;;;4984959;28;20202;-63
2022/10/11 00:40:54;;;;;;;1.37;1.27;;;16.80;99.90;;;;;;4983935;28;20216;-64
2022/10/11 00:43:23;;;;;;;1.23;1.23;;;16.90;99.90;;;;;;4982457;28;20366;-63
2022/10/11 00:46:17;;;;;;;1.27;1.17;;;16.90;99.90;;;;;;4984346;28;20202;-63
2022/10/11 00:48:49;;;;;;;1.87;1.27;;;16.90;99.90;;;;;;4978526;28;20206;-64
2022/10/11 00:51:21;;;;;;;1.53;1.30;;;16.90;99.90;;;;;;4985844;28;20210;-63
2022/10/11 00:53:49;;;;;;;0.90;0.90;;;16.90;99.90;;;;;;4987063;28;20226;-64
2022/10/11 00:56:23;;;;;;;1.30;1.20;;;16.90;99.90;;;;;;4983355;28;20212;-64
2022/10/11 00:58:51;;;;;;;1.70;1.20;;;16.90;99.90;;;;;;4980840;28;20349;-64
2022/10/11 01:01:18;;;;;;;1.07;1.07;;;17.00;99.90;;;;;;4986112;28;20210;-63
2022/10/11 01:03:46;;;;;;;1.20;1.10;;;17.00;99.90;;;;;;4981837;28;20230;-64
2022/10/11 01:06:13;;;;;;;0.90;0.90;;;17.10;99.90;;;;;;4987507;28;20214;-65
2022/10/11 01:08:40;;;;;;;1.33;0.97;;;17.10;99.90;;;;;;4981130;28;20209;-64
2022/10/11 01:11:11;;;;;;;1.33;1.23;;;17.00;99.90;;;;;;4988250;28;20216;-64
2022/10/11 01:13:51;;;;;;;1.43;1.33;;;16.90;99.90;;;;;;4978635;28;20205;-64
2022/10/11 01:16:25;;;;;;;1.47;1.10;;;16.80;99.90;;;;;;4981261;28;20213;-63
2022/10/11 01:19:02;;;;;;;1.73;1.17;;;16.70;99.90;;;;;;4972688;28;20697;-63
2022/10/11 01:21:40;;;;;;;1.17;1.07;;;16.70;99.90;;;;;;4984467;28;20197;-65
2022/10/11 01:24:37;;;;;;;1.00;1.00;;;16.80;99.90;;;;;;4983984;28;20430;-64
2022/10/11 01:27:33;;;;;;;1.30;1.20;;;16.70;99.90;;;;;;4973808;28;20207;-65
2022/10/11 01:30:14;;;;;;;1.30;1.20;;;16.60;99.90;;;;;;4979843;28;20719;-63
2022/10/11 01:32:49;;;;;;;1.23;1.13;;;16.60;99.90;;;;;;4982685;28;20266;-64
2022/10/11 01:35:24;;;;;;;1.00;1.00;;;16.60;99.90;;;;;;4989223;28;20221;-64
2022/10/11 01:37:58;;;;;;;1.30;1.20;;;16.60;99.90;;;;;;4984856;28;20213;-65
2022/10/11 01:40:31;;;;;;;1.65;1.20;;;16.60;99.90;;;;;;4983305;28;20211;-64
2022/10/11 01:43:00;;;;;;;1.00;1.00;;;16.60;99.90;;;;;;4989475;28;20246;-64
2022/10/11 01:45:29;;;;;;;1.50;1.20;;;16.60;99.90;;;;;;4984873;28;20285;-64
2022/10/11 01:48:04;;;;;;;1.80;1.33;;;16.60;99.90;;;;;;4985979;28;20228;-64
2022/10/11 01:50:42;;;;;;;1.30;1.20;;;16.70;99.90;;;;;;4980991;28;20206;-64
2022/10/11 01:53:38;;;;;;;1.30;1.20;;;16.60;99.90;;;;;;4987509;28;20206;-64
2022/10/11 01:56:13;;;;;;;1.30;1.20;;;16.70;99.90;;;;;;4978228;28;20206;-63
2022/10/11 01:58:55;;;;;;;1.43;1.33;;;16.70;99.90;;;;;;4980878;28;20213;-64
2022/10/11 02:01:33;;;;;;;1.20;1.10;;;16.80;99.90;;;;;;4985416;28;20217;-64
2022/10/11 02:04:05;;;;;;;1.27;1.17;;;16.60;99.90;;;;;;4979908;28;20226;-64
2022/10/11 02:06:40;;;;;;;1.30;1.20;;;16.60;99.90;;;;;;4978588;28;20593;-64
2022/10/11 02:09:14;;;;;;;1.30;1.20;;;16.60;99.90;;;;;;4981434;28;20229;-64
2022/10/11 02:11:42;;;;;;;1.33;1.20;;;16.60;99.90;;;;;;4984687;28;20695;-62
2022/10/11 02:14:11;;;;;;;1.20;1.10;;;16.60;99.90;;;;;;4985050;28;20227;-64
2022/10/11 02:16:44;;;;;;;1.40;1.30;;;16.60;99.90;;;;;;4992054;28;20213;-64
2022/10/11 02:19:14;;;;;;;1.47;1.37;;;16.50;99.90;;;;;;4982661;28;20215;-64
2022/10/11 02:21:46;;;;;;;1.40;1.30;;;16.50;99.90;;;;;;4987864;28;20198;-63
2022/10/11 02:24:19;;;;;;;1.17;1.10;;;16.50;99.90;;;;;;4985487;28;20595;-66
2022/10/11 02:26:51;;;;;;;1.30;1.20;;;16.50;99.90;;;;;;4988802;28;20220;-63
2022/10/11 02:29:20;;;;;;;1.00;1.00;;;16.60;99.90;;;;;;4985570;28;20666;-64
2022/10/11 02:31:49;;;;;;;1.10;1.10;;;16.60;99.90;;;;;;4983533;28;20213;-65
2022/10/11 02:34:21;;;;;;;1.27;1.20;;;16.60;99.90;;;;;;4989643;28;20234;-66
2022/10/11 02:36:57;;;;;;;1.37;1.27;;;16.50;99.90;;;;;;4983700;28;20206;-63
2022/10/11 02:39:29;;;;;;;1.37;1.27;;;16.40;99.90;;;;;;4990188;28;20229;-65
2022/10/11 02:41:59;;;;;;;2.33;1.30;;;16.30;99.90;;;;;;4983189;28;20207;-63
2022/10/11 02:44:31;;;;;;;1.20;1.10;;;16.30;99.90;;;;;;4991211;28;20234;-63
2022/10/11 02:47:00;;;;;;;1.43;1.23;;;16.30;99.90;;;;;;4975425;28;20293;-64
2022/10/11 02:49:28;;;;;;;1.20;1.10;;;16.30;99.90;;;;;;4985900;28;20217;-65
2022/10/11 02:51:56;;;;;;;1.00;1.00;;;16.30;99.90;;;;;;4985857;28;20664;-64
2022/10/11 02:54:23;;;;;;;1.00;1.00;;;16.40;99.90;;;;;;4985448;28;20222;-63
2022/10/11 02:56:49;;;;;;;1.30;1.20;;;16.40;99.90;;;;;;4987810;28;20585;-64
2022/10/11 02:59:16;;;;;;;1.30;1.20;;;16.40;99.90;;;;;;4984964;28;20349;-64
2022/10/11 03:01:43;;;;;;;1.30;1.10;;;16.40;99.90;;;;;;4988985;28;20213;-64
2022/10/11 03:04:11;;;;;;;1.27;1.17;;;16.40;99.90;;;;;;4982890;28;20237;-64
2022/10/11 03:06:38;;;;;;;1.27;1.17;;;16.30;99.90;;;;;;4979800;28;20244;-64
2022/10/11 03:09:05;;;;;;;1.30;1.20;;;16.30;99.90;;;;;;4983985;28;20203;-64
2022/10/11 03:11:32;;;;;;;1.17;1.10;;;16.40;99.90;;;;;;4970629;28;20205;-65
2022/10/11 03:13:58;;;;;;;1.00;1.00;;;16.30;99.90;;;;;;4985962;28;20226;-66
2022/10/11 03:16:25;;;;;;;1.10;1.10;;;16.40;99.90;;;;;;4985623;28;20202;-63
2022/10/11 03:18:52;;;;;;;1.20;1.10;;;16.40;99.90;;;;;;4987474;28;20225;-63
2022/10/11 03:21:20;;;;;;;1.40;1.30;;;16.40;99.90;;;;;;4994123;28;20223;-65
2022/10/11 03:23:47;;;;;;;1.03;1.03;;;16.50;99.90;;;;;;4986796;28;20715;-65
2022/10/11 03:26:14;;;;;;;1.10;1.00;;;16.60;99.90;;;;;;4987409;28;20205;-65
2022/10/11 03:28:40;;;;;;;1.20;1.10;;;16.40;99.90;;;;;;4986140;28;20206;-66
2022/10/11 03:31:07;;;;;;;1.20;1.10;;;16.40;99.90;;;;;;4988204;28;20213;-63
2022/10/11 03:33:34;;;;;;;1.13;1.07;;;16.40;99.90;;;;;;4984066;28;20202;-65
2022/10/11 03:36:01;;;;;;;1.00;1.00;;;16.40;99.90;;;;;;4985429;28;20959;-66
2022/10/11 03:38:29;;;;;;;1.10;1.10;;;16.50;99.90;;;;;;4984085;28;20221;-64
2022/10/11 03:40:57;;;;;;;1.60;1.30;;;16.50;99.90;;;;;;4985216;28;20264;-66
2022/10/11 03:43:24;;;;;;;1.40;1.30;;;16.50;99.90;;;;;;4982225;28;20210;-64
2022/10/11 03:45:50;;;;;;;1.20;1.20;;;16.40;99.90;;;;;;4979896;28;20207;-65
2022/10/11 03:48:17;;;;;;;1.10;1.10;;;16.30;99.90;;;;;;4985640;28;20210;-66
2022/10/11 03:50:44;;;;;;;1.30;1.25;;;16.30;99.90;;;;;;4985506;28;20706;-65
2022/10/11 03:53:11;;;;;;;2.93;1.40;;;16.10;99.90;;;;;;4984655;28;20214;-66
2022/10/11 03:55:40;;;;;;;1.27;1.17;;;16.10;99.90;;;;;;4985731;28;20276;-66
2022/10/11 03:58:07;;;;;;;1.03;1.03;;;16.00;99.90;;;;;;4985614;28;20210;-65
2022/10/11 04:00:35;;;;;;;1.20;1.10;;;16.00;99.90;;;;;;4981871;28;20218;-65
2022/10/11 04:03:02;;;;;;;1.25;1.10;;;16.00;99.90;;;;;;4987204;28;20210;-65
2022/10/11 04:05:30;;;;;;;1.20;1.20;;;15.90;99.90;;;;;;4983136;28;20230;-65
2022/10/11 04:07:56;;;;;;;1.40;1.30;;;15.90;99.90;;;;;;4988552;28;20202;-64
2022/10/11 04:10:23;;;;;;;2.17;1.57;;;15.70;99.90;;;;;;4983746;28;20198;-65
2022/10/11 04:12:51;;;;;;;1.07;1.03;;;15.70;99.90;;;;;;4985911;28;20221;-64
2022/10/11 04:15:18;;;;;;;1.20;1.17;;;15.70;99.90;;;;;;4983609;28;20229;-65
2022/10/11 04:17:45;;;;;;;1.83;1.30;;;15.80;99.90;;;;;;4980055;28;20203;-65
2022/10/11 04:20:12;;;;;;;1.00;1.00;;;15.80;99.90;;;;;;4985980;28;20236;-65
2022/10/11 04:22:39;;;;;;;1.13;1.10;;;15.80;99.90;;;;;;4982614;28;20271;-64
2022/10/11 04:25:07;;;;;;;1.60;1.50;;;15.70;99.90;;;;;;4974398;28;20226;-65
2022/10/11 04:27:35;;;;;;;2.77;1.60;;;15.70;99.90;;;;;;4982083;28;20214;-65
2022/10/11 04:30:03;;;;;;;1.40;1.30;;;15.70;99.90;;;;;;4981590;28;20202;-65
2022/10/11 04:32:30;;;;;;;1.45;1.35;;;15.60;99.90;;;;;;4984531;28;20297;-65
2022/10/11 04:34:57;;;;;;;1.53;1.23;;;15.60;99.90;;;;;;4985383;28;20229;-66
2022/10/11 04:37:23;;;;;;;1.43;1.33;;;15.60;99.90;;;;;;4987854;28;20673;-65
2022/10/11 04:39:50;;;;;;;3.90;1.88;;;15.60;99.90;;;;;;4986584;28;20260;-63
2022/10/11 04:42:17;;;;;;;1.40;1.30;;;15.50;99.90;;;;;;4982594;28;20207;-65
2022/10/11 04:44:44;;;;;;;1.30;1.20;;;15.50;99.90;;;;;;4987309;28;20709;-63
2022/10/11 04:47:12;;;;;;;1.70;1.60;;;15.50;99.90;;;;;;4981837;28;20297;-65
2022/10/11 04:49:39;;;;;;;1.53;1.43;;;15.50;99.90;;;;;;4984653;28;20198;-65
2022/10/11 04:52:06;;;;;;;1.47;1.37;;;15.50;99.90;;;;;;4982365;28;20230;-64
2022/10/11 04:54:32;;;;;;;1.23;1.20;;;15.50;99.90;;;;;;4969765;28;20318;-65
2022/10/11 04:56:59;;;;;;;1.50;1.40;;;15.50;99.90;;;;;;4984230;28;20245;-66
2022/10/11 04:59:26;;;;;;;1.48;1.38;;;15.50;99.90;;;;;;4983816;28;20244;-64
2022/10/11 05:01:53;;;;;;;1.38;1.27;;;15.50;99.90;;;;;;4985509;28;20233;-65
2022/10/11 05:04:21;;;;;;;1.37;1.27;;;15.50;99.90;;;;;;4977639;28;20230;-65
2022/10/11 05:06:48;;;;;;;1.40;1.30;;;15.50;99.90;;;;;;4984162;28;20217;-65
2022/10/11 05:09:15;;;;;;;1.48;1.38;;;15.50;99.90;;;;;;4981951;28;20213;-65
2022/10/11 05:11:41;;;;;;;1.40;1.30;;;15.60;99.90;;;;;;4984057;28;20194;-65
2022/10/11 05:14:08;;;;;;;1.33;1.25;;;15.60;99.90;;;;;;4982779;28;20233;-63
2022/10/11 05:16:35;;;;;;;1.63;1.50;;;15.60;99.90;;;;;;4984690;28;20592;-63
2022/10/11 05:19:02;;;;;;;1.60;1.50;;;15.60;99.90;;;;;;4984686;28;20222;-63
2022/10/11 05:21:30;;;;;;;1.70;1.57;;;15.60;99.90;;;;;;4985483;28;20239;-63
2022/10/11 05:23:57;;;;;;;1.80;1.70;;;15.60;99.90;;;;;;4989433;28;20234;-63
2022/10/11 05:26:26;;;;;;;1.53;1.43;;;15.60;99.90;;;;;;4987861;28;20206;-64
2022/10/11 05:28:53;;;;;;;1.67;1.57;;;15.60;99.90;;;;;;4986800;28;20206;-63
2022/10/11 05:31:21;;;;;;;1.67;1.57;;;15.60;99.90;;;;;;4973939;28;20293;-64
2022/10/11 05:33:48;;;;;;;2.10;1.50;;;15.50;99.90;;;;;;4983237;28;20218;-64
2022/10/11 05:36:15;;;;;;;1.75;1.50;;;15.50;99.90;;;;;;4989301;28;20225;-64
2022/10/11 05:38:44;;;;;;;1.53;1.43;;;15.50;99.90;;;;;;5000129;28;20229;-64
2022/10/11 05:41:13;;;;;;;1.37;1.27;;;15.50;99.90;;;;;;4991889;28;20317;-65
2022/10/11 05:43:40;;;;;;;1.30;1.30;;;15.40;99.90;;;;;;4993412;28;20205;-64
2022/10/11 05:46:07;;;;;;;1.77;1.67;;;15.40;99.90;;;;;;4993369;28;20209;-63
2022/10/11 05:48:34;;;;;;;2.45;1.55;;;15.30;99.90;;;;;;4992016;28;20289;-65
2022/10/11 05:51:03;;;;;;;1.63;1.52;;;15.40;99.90;;;;;;4996615;28;20661;-65
2022/10/11 05:53:31;;;;;;;1.35;1.25;;;15.40;99.90;;;;;;4996984;28;20214;-62
2022/10/11 05:56:00;;;;;;;2.30;2.10;;;15.40;99.90;;;;;;4993853;28;20620;-64
2022/10/11 05:58:27;;;;;;;1.73;1.58;;;15.30;99.90;;;;;;4990328;28;20215;-64
2022/10/11 06:00:55;;;;;;;1.30;1.20;;;15.30;99.90;;;;;;4987356;28;20707;-64
2022/10/11 06:03:23;;;;;;;1.40;1.30;;;15.30;99.90;;;;;;4990727;28;20206;-64
2022/10/11 06:05:50;;;;;;;1.47;1.37;;;15.30;99.90;;;;;;4988738;28;20298;-63
2022/10/11 06:08:17;;;;;;;1.58;1.48;;;15.30;99.90;;;;;;4990290;28;20198;-64
2022/10/11 06:10:44;;;;;;;1.87;1.50;;;15.30;99.90;;;;;;4990217;28;20266;-62
2022/10/11 06:13:12;;;;;;;1.90;1.80;;;15.20;99.90;;;;;;4997455;28;20329;-65
2022/10/11 06:15:40;;;;;;;2.27;1.80;;;15.00;99.90;;;;;;4991035;28;20638;-65
2022/10/11 06:18:06;;;;;;;1.77;1.67;;;14.90;99.90;;;;;;4998061;28;20268;-62
2022/10/11 06:20:33;;;;;;;1.87;1.73;;;14.90;99.90;;;;;;4990067;28;20229;-62
2022/10/11 06:23:00;;;;;;;1.87;1.70;;;14.90;99.90;;;;;;4988882;28;20234;-64
2022/10/11 06:25:27;;;;;;;1.70;1.60;;;15.00;99.90;;;;;;4985848;28;20657;-65
2022/10/11 06:27:54;;;;;;;1.80;1.70;;;15.00;99.90;;;;;;4992399;28;20317;-62
2022/10/11 06:30:23;;;;;;;1.63;1.53;;;15.00;99.90;;;;;;4989854;28;20206;-64
2022/10/11 06:32:49;;;;;;;1.90;1.80;;;15.00;99.90;;;;;;4982631;28;20237;-64
2022/10/11 06:35:16;;;;;;;2.00;1.90;;;15.20;99.90;;;;;;4983206;28;20314;-62
2022/10/11 06:37:43;;;;;;;2.97;2.00;;;15.00;99.90;;;;;;4982840;28;20270;-62
2022/10/11 06:40:11;;;;;;;2.17;1.90;;;15.00;99.90;;;;;;4981244;28;20202;-64
2022/10/11 06:42:38;;;;;;;2.20;2.10;;;15.00;99.90;;;;;;4981330;28;20206;-63
2022/10/11 06:45:05;;;;;;;2.53;2.20;;;15.10;99.90;;;;;;4981935;28;20234;-63
2022/10/11 06:47:34;;;;;;;3.23;2.20;;;15.10;99.90;;;;;;4982696;28;20298;-62
2022/10/11 06:50:00;;;;;;;2.33;2.23;;;15.20;99.90;;;;;;4981914;28;20213;-63
2022/10/11 06:52:27;;;;;;;2.00;1.90;;;15.10;99.90;;;;;;4981555;28;20293;-62
2022/10/11 06:54:54;;;;;;;2.23;2.03;;;15.20;99.90;;;;;;4981664;28;20249;-62
2022/10/11 06:57:21;;;;;;;2.30;2.20;;;15.20;99.90;;;;;;4983615;28;20207;-63
2022/10/11 06:59:47;;;;;;;2.53;2.33;;;15.20;99.90;;;;;;4983007;28;20226;-63
2022/10/11 07:02:14;;;;;;;2.60;2.40;;;15.20;99.90;;;;;;4981851;28;20229;-65
2022/10/11 07:04:42;;;;;;;2.30;2.13;;;15.20;99.90;;;;;;4977641;28;20229;-62
2022/10/11 07:07:12;;;;;;;3.83;2.40;;;15.20;99.90;;;;;;4981461;28;20313;-62
2022/10/11 07:09:39;;;;;;;1.90;1.80;;;15.30;99.90;;;;;;4978552;28;20207;-63
2022/10/11 07:12:07;;;;;;;2.27;2.13;;;15.30;99.90;;;;;;4981139;28;20700;-62
2022/10/11 07:14:34;;;;;;;2.50;2.30;;;15.30;99.90;;;;;;4982224;28;20734;-63
2022/10/11 07:17:01;;;;;;;1.90;1.80;;;15.30;99.90;;;;;;4982064;28;20246;-62
2022/10/11 07:19:28;;;;;;;2.30;2.10;;;15.40;99.90;;;;;;4982137;28;20593;-63
2022/10/11 07:21:56;;;;;;;1.93;1.83;;;15.50;99.90;;;;;;4980178;28;20219;-63
2022/10/11 07:24:23;;;;;;;2.10;2.00;;;15.50;99.90;;;;;;4982010;28;20243;-62
2022/10/11 07:26:50;;;;;;;2.50;2.20;;;15.60;99.90;;;;;;4980964;28;20725;-63
2022/10/11 07:29:16;;;;;;;2.23;2.10;;;15.70;99.90;;;;;;4981836;28;20282;-62
2022/10/11 07:31:44;;;;;;;2.00;1.90;;;15.80;99.90;;;;;;4980451;28;20199;-63
2022/10/11 07:34:11;;;;;;;2.23;2.10;;;15.80;99.90;;;;;;4981182;28;20226;-63
2022/10/11 07:36:37;;;;;;;2.53;2.43;;;15.90;99.90;;;;;;4982321;28;20203;-63
2022/10/11 07:39:07;;;;;;;3.07;2.53;;;15.90;99.90;;;;;;4980513;28;20214;-64
2022/10/11 07:41:35;;;;;;;2.50;2.30;;;15.90;99.90;;;;;;4978972;28;20265;-65
2022/10/11 07:44:02;;;;;;;2.70;2.50;;;15.90;99.90;;;;;;4982428;28;20234;-63
2022/10/11 07:46:29;;;;;;;2.50;2.33;;;15.90;99.90;;;;;;4982690;28;20293;-62
2022/10/11 07:48:56;;;;;;;2.43;2.33;;;16.00;99.90;;;;;;4978208;28;20219;-65
2022/10/11 07:51:24;;;;;;;2.50;2.40;;;16.00;99.90;;;;;;4977902;28;20202;-65
2022/10/11 07:53:53;;;;;;;2.73;2.50;;;16.10;99.90;;;;;;4981156;28;20768;-64
2022/10/11 07:56:23;;;;;;;2.77;2.57;;;16.20;99.90;;;;;;4980085;28;20213;-63
2022/10/11 07:58:51;;;;;;;2.70;2.50;;;16.30;99.90;;;;;;4978298;28;20199;-63
2022/10/11 08:01:18;;;;;;;2.90;2.70;;;16.20;99.90;;;;;;4978003;28;20249;-63
2022/10/11 08:03:45;;;;;;;3.00;2.80;;;16.30;99.90;;;;;;4979209;28;20253;-62
2022/10/11 08:06:14;;;;;;;2.87;2.67;;;16.20;99.90;;;;;;4973161;28;20286;-65
2022/10/11 08:08:41;;;;;;;3.70;3.40;;;16.20;99.90;;;;;;4980638;28;20208;-64
2022/10/11 08:11:08;;;;;;;3.40;3.10;;;16.20;99.90;;;;;;4978562;28;20198;-64
2022/10/11 08:13:36;;;;;;;3.57;3.30;;;16.10;99.90;;;;;;4984436;28;20210;-64
2022/10/11 08:16:10;;;;;;;3.22;3.03;;;16.10;99.90;;;;;;4982761;28;20207;-64
2022/10/11 08:18:37;;;;;;;3.30;3.10;;;16.10;99.90;;;;;;4978980;28;20213;-64
2022/10/11 08:21:07;;;;;;;2.87;2.77;;;16.10;99.90;;;;;;4980848;28;20232;-63
2022/10/11 08:23:34;;;;;;;4.50;3.10;;;16.10;99.90;;;;;;5043903;22;20231;-64
2022/10/11 08:26:01;;;;;;;3.30;3.10;;;16.20;99.90;;;;;;5057890;28;20651;-63
2022/10/11 08:28:28;;;;;;;3.20;3.00;;;16.10;99.90;;;;;;5052466;28;20311;-63
2022/10/11 08:30:56;;;;;;;3.20;3.00;;;16.10;99.90;;;;;;5056952;28;20230;-63
2022/10/11 08:33:25;;;;;;;3.30;3.07;;;16.20;99.90;;;;;;5062336;28;20231;-64
2022/10/11 08:35:52;;;;;;;3.20;3.00;;;16.20;99.90;;;;;;5064807;28;20200;-64
2022/10/11 08:38:20;;;;;;;3.40;3.20;;;16.20;99.90;;;;;;5062179;28;20211;-63
2022/10/11 08:40:49;;;;;;;3.47;3.17;;;16.20;99.90;;;;;;5065924;28;20208;-64
2022/10/11 08:43:29;;;;;;;3.20;3.00;;;16.20;99.90;;;;;;5050869;28;20227;-62
2022/10/11 08:46:00;;;;;;;3.30;3.10;;;16.10;99.90;;;;;;5057020;28;20197;-63
2022/10/11 08:48:35;;;;;;;3.53;3.10;;;16.00;99.90;;;;;;5062619;28;20204;-64
2022/10/11 08:51:05;;;;;;;3.40;3.10;;;16.10;99.90;;;;;;5064025;28;20230;-63
2022/10/11 08:53:44;;;;;;;3.80;3.50;;;16.00;99.90;;;;;;5051391;28;20230;-63
2022/10/11 08:56:13;;;;;;;2.97;2.77;;;16.00;99.90;;;;;;5063630;28;20621;-63
2022/10/11 08:58:46;;;;;;;2.60;2.50;;;16.00;99.90;;;;;;5059420;28;20238;-64
2022/10/11 09:01:19;;;;;;;3.07;2.87;;;16.20;99.90;;;;;;5066709;28;20276;-64
2022/10/11 09:03:47;;;;;;;3.37;3.10;;;16.30;99.90;;;;;;5059948;28;20228;-63
2022/10/11 09:06:24;;;;;;;3.73;3.20;;;16.40;99.90;;;;;;5068013;28;20323;-64
2022/10/11 09:09:20;;;;;;;2.23;2.03;;;16.30;99.90;;;;;;5055163;28;20220;-62
2022/10/11 09:11:59;;;;;;;2.87;2.67;;;16.30;99.90;;;;;;5044267;28;20431;-63
2022/10/11 09:14:53;;;;;;;2.13;1.93;;;16.40;99.90;;;;;;5057678;28;20580;-63
2022/10/11 09:17:36;;;;;;;2.00;1.90;;;16.20;99.90;;;;;;5046973;28;20199;-63
2022/10/11 09:20:23;;;;;;;2.00;1.90;;;16.20;99.90;;;;;;5063477;28;20570;-64
2022/10/11 09:22:58;;;;;;;1.80;1.70;;;16.30;99.90;;;;;;5054975;28;20224;-63
2022/10/11 09:25:29;;;;;;;1.67;1.57;;;16.30;99.90;;;;;;5064018;28;20235;-63
2022/10/11 09:28:21;;;;;;;1.73;1.63;;;16.40;99.90;;;;;;5065199;28;20286;-63
2022/10/11 09:30:51;;;;;;;1.57;1.47;;;16.50;99.90;;;;;;5052081;28;20253;-63
2022/10/11 09:33:22;;;;;;;1.77;1.67;;;16.80;99.90;;;;;;5067384;28;20219;-64
2022/10/11 09:35:51;;;;;;;1.77;1.57;;;16.60;99.90;;;;;;5069268;28;20206;-63
2022/10/11 09:38:27;;;;;;;1.80;1.70;;;16.50;99.90;;;;;;5063550;28;20204;-63
2022/10/11 09:41:11;;;;;;;2.03;1.90;;;16.50;99.90;;;;;;5055792;28;20557;-63
2022/10/11 09:43:38;;;;;;;1.53;1.43;;;16.50;99.90;;;;;;5055278;28;20331;-63
2022/10/11 09:46:17;;;;;;;2.20;2.10;;;16.60;99.90;;;;;;5056773;28;20204;-63
2022/10/11 09:48:45;;;;;;;2.40;2.20;;;16.60;99.90;;;;;;5058227;28;20645;-63
2022/10/11 09:51:17;;;;;;;2.47;1.87;;;16.60;99.90;;;;;;5059413;28;20203;-63
2022/10/11 09:53:53;;;;;;;1.97;1.87;;;16.60;99.90;;;;;;5056061;28;20227;-63
2022/10/11 09:56:22;;;;;;;1.97;1.87;;;16.60;99.90;;;;;;5063532;28;20239;-64
2022/10/11 09:58:49;;;;;;;1.97;1.87;;;16.50;99.90;;;;;;5060477;28;20217;-63
2022/10/11 10:01:25;;;;;;;1.90;1.80;;;16.50;99.90;;;;;;5057862;28;20214;-63
2022/10/11 10:04:09;;;;;;;2.03;1.87;;;16.50;99.90;;;;;;5057526;28;20215;-64
2022/10/11 10:06:36;;;;;;;2.10;2.00;;;16.60;99.90;;;;;;5061669;28;20207;-63
2022/10/11 10:09:24;;;;;;;2.17;2.07;;;16.60;99.90;;;;;;5065950;28;20210;-63
2022/10/11 10:11:51;;;;;;;2.30;2.20;;;16.80;99.90;;;;;;5064576;28;20216;-64
2022/10/11 10:14:25;;;;;;;2.23;2.03;;;16.70;99.90;;;;;;5064181;28;20780;-63
2022/10/11 10:17:01;;;;;;;2.30;2.00;;;16.80;99.90;;;;;;5069937;28;20207;-64
2022/10/11 10:19:32;;;;;;;2.30;2.20;;;16.90;99.90;;;;;;5064391;28;20214;-63
2022/10/11 10:21:59;;;;;;;3.63;2.53;;;17.00;99.90;;;;;;5063473;28;20238;-64
2022/10/11 10:24:37;;;;;;;2.60;2.40;;;17.00;99.90;;;;;;5060715;28;20204;-63
2022/10/11 10:27:24;;;;;;;2.97;2.77;;;17.10;99.90;;;;;;5058618;28;20268;-63
2022/10/11 10:30:12;;;;;;;2.23;2.03;;;17.30;99.90;;;;;;5053652;28;20215;-64
2022/10/11 10:32:46;;;;;;;2.50;2.30;;;17.40;99.90;;;;;;5061837;28;20686;-63
2022/10/11 10:35:25;;;;;;;2.60;2.40;;;17.50;99.90;;;;;;5061508;28;20294;-63
2022/10/11 10:37:57;;;;;;;2.13;2.03;;;17.60;99.90;;;;;;5070886;28;20203;-64
2022/10/11 10:40:28;;;;;;;2.50;2.30;;;17.60;99.90;;;;;;5072858;28;20207;-63
2022/10/11 10:42:55;;;;;;;2.27;2.07;;;17.50;99.90;;;;;;5057343;28;20232;-62
2022/10/11 10:45:33;;;;;;;2.33;2.23;;;17.50;99.90;;;;;;5068792;28;20233;-63
2022/10/11 10:48:14;;;;;;;2.30;2.20;;;17.40;99.90;;;;;;5055683;28;20207;-63
2022/10/11 10:50:50;;;;;;;1.90;1.80;;;17.40;99.90;;;;;;5064874;28;20199;-63
2022/10/11 10:53:25;;;;;;;2.57;2.30;;;17.40;99.90;;;;;;5057137;28;20227;-64
2022/10/11 10:55:59;;;;;;;2.40;2.20;;;17.50;99.90;;;;;;5066015;28;20653;-63
2022/10/11 10:58:39;;;;;;;2.00;1.90;;;17.80;99.90;;;;;;5065713;28;20222;-64
2022/10/11 11:01:13;;;;;;;2.00;1.90;;;18.10;99.90;;;;;;5067112;28;20202;-63
2022/10/11 11:03:45;;;;;;;1.90;1.60;;;18.20;99.90;;;;;;5052697;28;20228;-63
2022/10/11 11:06:25;;;;;;;2.30;1.77;;;18.30;99.90;;;;;;5060055;28;20215;-63
2022/10/11 11:09:04;;;;;;;1.80;1.70;;;18.50;99.90;;;;;;5054748;28;20200;-63
2022/10/11 11:11:49;;;;;;;1.97;1.77;;;18.50;99.90;;;;;;5068692;28;20203;-64
2022/10/11 11:14:27;;;;;;;1.70;1.60;;;18.40;99.90;;;;;;5061325;28;20203;-63
2022/10/11 11:17:02;;;;;;;1.92;1.60;;;18.40;99.90;;;;;;5066375;28;20200;-64
2022/10/11 11:19:45;;;;;;;1.50;1.40;;;18.50;99.90;;;;;;5073037;28;21492;-63
2022/10/11 11:22:21;;;;;;;1.48;1.38;;;18.50;99.90;;;;;;5067852;28;20319;-63
2022/10/11 11:24:59;;;;;;;2.60;1.50;;;18.60;99.90;;;;;;5051636;28;20205;-63
2022/10/11 11:27:41;;;;;;;1.67;1.57;;;18.90;99.90;;;;;;5060604;28;20202;-64
2022/10/11 11:30:13;;;;;;;1.60;1.40;;;18.90;99.90;;;;;;5057473;28;20210;-64
2022/10/11 11:32:49;;;;;;;1.60;1.50;;;18.90;99.90;;;;;;5064377;28;20219;-63
2022/10/11 11:35:26;;;;;;;1.23;1.20;;;18.90;99.90;;;;;;5070269;28;20735;-64
2022/10/11 11:38:00;;;;;;;1.70;1.60;;;18.60;99.90;;;;;;5048091;28;20199;-63
2022/10/11 11:40:34;;;;;;;1.80;1.70;;;18.50;99.90;;;;;;5060358;28;20199;-64
2022/10/11 11:43:06;;;;;;;1.60;1.40;;;18.50;99.90;;;;;;5059983;28;20262;-63
2022/10/11 11:45:43;;;;;;;2.27;1.80;;;18.50;99.90;;;;;;5061937;28;20227;-63
2022/10/11 11:48:17;;;;;;;1.87;1.67;;;18.50;99.90;;;;;;5050571;28;20295;-63
2022/10/11 11:50:50;;;;;;;1.83;1.53;;;18.60;99.90;;;;;;5064817;28;20322;-63
2022/10/11 11:53:23;;;;;;;1.75;1.63;;;18.50;99.90;;;;;;5064872;28;20215;-64
2022/10/11 11:55:59;;;;;;;1.60;1.50;;;18.40;99.90;;;;;;5056692;28;20196;-63
2022/10/11 11:58:35;;;;;;;2.05;1.67;;;18.40;99.90;;;;;;5065412;28;20211;-63
2022/10/11 12:01:11;;;;;;;1.80;1.70;;;18.40;99.90;;;;;;5058872;28;20676;-64
2022/10/11 12:03:41;;;;;;;2.05;1.70;;;18.30;99.90;;;;;;5048964;28;20227;-63
2022/10/11 12:06:24;;;;;;;1.50;1.40;;;18.30;99.90;;;;;;5055691;28;20212;-63
2022/10/11 12:09:02;;;;;;;1.60;1.50;;;18.50;99.90;;;;;;5054286;28;20239;-64
2022/10/11 12:11:40;;;;;;;1.50;1.40;;;18.50;99.90;;;;;;5052373;28;20204;-63
2022/10/11 12:14:23;;;;;;;1.48;1.38;;;18.30;99.90;;;;;;5054099;28;20622;-63
2022/10/11 12:17:12;;;;;;;1.90;1.70;;;18.30;99.90;;;;;;5052109;28;20666;-63
2022/10/11 12:19:42;;;;;;;1.50;1.40;;;18.30;99.90;;;;;;5056484;28;20214;-63
2022/10/11 12:22:35;;;;;;;1.55;1.45;;;18.50;99.90;;;;;;5057276;28;20234;-63
2022/10/11 12:25:31;;;;;;;1.23;1.23;;;18.60;99.90;;;;;;5060157;28;20220;-63
2022/10/11 12:28:00;;;;;;;1.80;1.70;;;18.50;99.90;;;;;;5057111;28;20292;-63
2022/10/11 12:30:53;;;;;;;2.00;1.90;;;18.60;99.90;;;;;;5060923;28;20208;-63
2022/10/11 12:33:22;;;;;;;1.90;1.47;;;18.60;99.90;;;;;;5058434;28;20239;-64
2022/10/11 12:36:04;;;;;;;1.80;1.70;;;18.60;99.90;;;;;;5055866;28;20204;-63
2022/10/11 12:38:33;;;;;;;1.83;1.70;;;18.60;99.90;;;;;;5060841;28;20203;-63
2022/10/11 12:41:37;;;;;;;1.73;1.63;;;18.60;99.90;;;;;;5064051;28;20211;-63
2022/10/11 12:44:14;;;;;;;1.60;1.50;;;18.50;99.90;;;;;;5055468;28;20589;-63
2022/10/11 12:46:57;;;;;;;2.00;1.90;;;18.50;99.90;;;;;;5057679;28;20204;-63
2022/10/11 12:49:32;;;;;;;1.70;1.50;;;18.50;99.90;;;;;;5065808;28;20207;-63
2022/10/11 12:52:01;;;;;;;1.58;1.48;;;18.60;99.90;;;;;;5063750;28;20280;-63
2022/10/11 12:54:57;;;;;;;1.33;1.30;;;18.60;99.90;;;;;;5066930;28;20266;-63
2022/10/11 12:58:06;;;;;;;1.63;1.50;;;18.60;99.90;;;;;;5065837;28;20259;-62
2022/10/11 13:00:42;;;;;;;1.80;1.70;;;18.50;99.90;;;;;;5060588;28;20202;-63
2022/10/11 13:03:27;;;;;;;1.40;1.30;;;18.40;99.90;;;;;;5057304;28;20231;-63
2022/10/11 13:05:56;;;;;;;1.63;1.53;;;18.40;99.90;;;;;;5057187;28;20200;-63
2022/10/11 13:08:28;;;;;;;1.80;1.70;;;18.40;99.90;;;;;;5053391;28;20204;-63
2022/10/11 13:10:58;;;;;;;1.50;1.40;;;18.40;99.90;;;;;;5053122;28;20215;-63